Time;durP1;ratioP1;P1;durP2;ratioP2;P2;SDS_P1;SDS_P2;PMS_P1;PMS_P2;Temp;Humidity;BMP_temperature;BMP_pressure;BME280_temperature;BME280_humidity;BME280_pressure;Samples;Min_cycle;Max_cycle;Signal;HPM_P1;HPM_P2
2022/04/18 00:01:56;;;;;;;10.10;4.03;;;25.60;99.90;;;;;;5028802;28;20528;-58
2022/04/18 00:04:22;;;;;;;9.55;5.47;;;25.60;99.90;;;;;;5024161;28;20018;-58
2022/04/18 00:06:48;;;;;;;9.50;4.70;;;25.50;99.90;;;;;;5017651;28;20022;-55
2022/04/18 00:09:14;;;;;;;8.77;4.82;;;25.50;99.90;;;;;;5014145;28;20493;-63
2022/04/18 00:11:40;;;;;;;9.48;4.88;;;25.60;99.90;;;;;;5015658;28;20052;-59
2022/04/18 00:14:06;;;;;;;9.05;4.25;;;25.60;99.90;;;;;;5025620;28;20021;-57
2022/04/18 00:16:32;;;;;;;10.98;4.25;;;25.60;99.90;;;;;;5023735;28;20036;-58
2022/04/18 00:18:58;;;;;;;5.93;4.00;;;25.60;99.90;;;;;;5024349;28;20051;-59
2022/04/18 00:21:24;;;;;;;8.02;3.92;;;25.60;99.90;;;;;;5024462;28;21674;-57
2022/04/18 00:23:50;;;;;;;11.23;4.57;;;25.60;99.90;;;;;;5020651;28;20493;-56
2022/04/18 00:26:16;;;;;;;10.65;4.45;;;25.60;99.90;;;;;;5019906;28;20025;-57
2022/04/18 00:28:42;;;;;;;10.32;4.20;;;25.60;99.90;;;;;;5025041;28;20064;-56
2022/04/18 00:31:08;;;;;;;8.82;4.35;;;25.60;99.90;;;;;;5029164;28;20029;-57
2022/04/18 00:33:34;;;;;;;9.55;4.45;;;25.60;99.90;;;;;;5030807;28;20428;-57
2022/04/18 00:36:01;;;;;;;9.57;4.10;;;25.60;99.90;;;;;;5030372;28;20033;-58
2022/04/18 00:38:28;;;;;;;8.32;4.18;;;25.60;99.90;;;;;;5016463;28;20029;-58
2022/04/18 00:40:54;;;;;;;5.85;3.80;;;25.60;99.90;;;;;;5011790;28;20113;-56
2022/04/18 00:43:37;;;;;;;7.55;3.78;;;25.60;99.90;;;;;;5019264;28;20029;-53
2022/04/18 00:46:03;;;;;;;9.90;3.92;;;25.60;99.90;;;;;;5018512;28;20038;-58
2022/04/18 00:48:29;;;;;;;6.60;4.05;;;25.60;99.90;;;;;;5017188;28;20059;-57
2022/04/18 00:50:55;;;;;;;8.82;3.65;;;25.60;99.90;;;;;;5023342;28;20038;-57
2022/04/18 00:53:21;;;;;;;6.80;3.53;;;25.60;99.90;;;;;;5011947;28;20507;-57
2022/04/18 00:55:47;;;;;;;7.93;4.07;;;25.60;99.90;;;;;;5015108;28;20022;-56
2022/04/18 00:58:14;;;;;;;7.20;3.72;;;25.60;99.90;;;;;;5012113;28;20034;-56
2022/04/18 01:00:40;;;;;;;8.18;3.83;;;25.60;99.90;;;;;;5017137;28;20038;-57
2022/04/18 01:03:05;;;;;;;5.95;3.65;;;25.60;99.90;;;;;;5010293;28;20493;-57
2022/04/18 01:05:31;;;;;;;5.80;3.25;;;25.60;99.90;;;;;;5011915;28;20367;-57
2022/04/18 01:07:59;;;;;;;5.20;3.50;;;25.60;99.90;;;;;;5016811;28;20022;-56
2022/04/18 01:10:24;;;;;;;6.18;3.85;;;25.60;99.90;;;;;;5026229;28;20044;-56
2022/04/18 01:12:50;;;;;;;8.32;4.03;;;25.60;99.90;;;;;;5031370;28;20029;-57
2022/04/18 01:15:16;;;;;;;9.68;3.22;;;25.60;99.90;;;;;;5024574;28;20068;-57
2022/04/18 01:17:42;;;;;;;5.85;3.70;;;25.60;99.90;;;;;;5009923;28;20030;-57
2022/04/18 01:20:08;;;;;;;8.45;3.80;;;25.60;99.90;;;;;;5029751;28;20473;-56
2022/04/18 01:22:36;;;;;;;5.07;3.58;;;25.60;99.90;;;;;;5030291;28;20351;-58
2022/04/18 01:30:31;;;;;;;6.00;3.50;;;25.60;99.90;;;;;;5017374;28;20052;-55
2022/04/18 01:32:57;;;;;;;5.43;3.65;;;25.60;99.90;;;;;;5012130;28;20045;-55
2022/04/18 01:35:22;;;;;;;8.40;3.53;;;25.50;99.90;;;;;;5010280;28;20030;-56
2022/04/18 01:37:48;;;;;;;7.32;3.65;;;25.60;99.90;;;;;;5011528;28;20018;-57
2022/04/18 01:40:14;;;;;;;6.10;3.75;;;25.60;99.90;;;;;;5019424;28;20373;-56
2022/04/18 01:42:40;;;;;;;7.63;3.53;;;25.60;99.90;;;;;;5031299;28;20035;-54
2022/04/18 01:45:06;;;;;;;6.78;3.47;;;25.50;99.90;;;;;;5031070;28;20025;-55
2022/04/18 01:47:32;;;;;;;7.07;3.42;;;25.50;99.90;;;;;;5031009;28;20052;-55
2022/04/18 01:49:58;;;;;;;6.10;3.28;;;25.60;99.90;;;;;;5030968;28;20030;-53
2022/04/18 01:52:23;;;;;;;5.30;3.33;;;25.50;99.90;;;;;;5030720;28;20108;-54
2022/04/18 01:54:49;;;;;;;7.32;3.58;;;25.50;99.90;;;;;;5028905;28;20025;-55
2022/04/18 01:57:15;;;;;;;6.65;3.55;;;25.50;99.90;;;;;;5030991;28;20036;-55
2022/04/18 01:59:44;;;;;;;5.25;3.63;;;25.50;99.90;;;;;;5031233;28;20536;-55
2022/04/18 02:02:10;;;;;;;5.93;3.92;;;25.50;99.90;;;;;;5030833;28;20381;-54
2022/04/18 02:04:36;;;;;;;8.05;3.28;;;25.50;99.90;;;;;;5030974;28;20022;-54
2022/04/18 02:07:02;;;;;;;6.68;3.40;;;25.50;99.90;;;;;;5030923;28;20017;-54
2022/04/18 02:09:28;;;;;;;6.55;3.45;;;25.50;99.90;;;;;;5030781;28;20029;-54
2022/04/18 02:11:54;;;;;;;4.57;3.15;;;25.50;99.90;;;;;;5030744;28;20099;-56
2022/04/18 02:14:20;;;;;;;5.68;2.88;;;25.50;99.90;;;;;;5030464;28;20218;-56
2022/04/18 02:16:45;;;;;;;3.47;3.10;;;25.50;99.90;;;;;;5030190;28;20026;-58
2022/04/18 02:19:11;;;;;;;4.55;3.15;;;25.50;99.90;;;;;;5029550;28;20533;-58
2022/04/18 02:21:37;;;;;;;6.60;3.35;;;25.50;99.90;;;;;;5011830;28;20465;-57
2022/04/18 02:24:03;;;;;;;4.75;3.28;;;25.50;99.90;;;;;;5015835;28;20027;-57
2022/04/18 02:26:28;;;;;;;7.50;3.45;;;25.50;99.90;;;;;;5032708;28;20049;-57
2022/04/18 02:28:55;;;;;;;5.15;2.80;;;25.50;99.90;;;;;;5032963;28;20022;-57
2022/04/18 02:31:21;;;;;;;6.83;3.20;;;25.50;99.90;;;;;;5033864;28;20107;-57
2022/04/18 02:33:47;;;;;;;4.80;2.80;;;25.50;99.90;;;;;;5034002;28;20065;-57
2022/04/18 02:36:12;;;;;;;5.40;2.70;;;25.50;99.90;;;;;;5033934;28;20104;-57
2022/04/18 02:38:38;;;;;;;8.30;3.47;;;25.50;99.90;;;;;;5034223;28;20030;-57
2022/04/18 02:41:04;;;;;;;5.60;3.47;;;25.40;99.90;;;;;;5034401;28;20145;-57
2022/04/18 02:43:30;;;;;;;4.97;2.50;;;25.40;99.90;;;;;;5034120;28;20057;-57
2022/04/18 02:45:55;;;;;;;6.05;3.55;;;25.40;99.90;;;;;;5034120;28;20034;-57
2022/04/18 02:48:21;;;;;;;6.72;3.50;;;25.30;99.90;;;;;;5028454;28;20028;-55
2022/04/18 02:50:47;;;;;;;5.35;2.78;;;25.40;99.90;;;;;;5017904;28;20861;-56
2022/04/18 02:53:13;;;;;;;6.55;2.80;;;25.30;99.90;;;;;;5016127;28;20030;-55
2022/04/18 02:55:38;;;;;;;4.95;2.65;;;25.30;99.90;;;;;;5022637;28;20033;-62
2022/04/18 02:58:04;;;;;;;7.18;3.10;;;25.30;99.90;;;;;;5029141;28;20535;-60
2022/04/18 03:00:30;;;;;;;5.03;2.92;;;25.30;99.90;;;;;;5022042;28;20054;-58
2022/04/18 03:02:56;;;;;;;7.75;3.35;;;25.30;99.90;;;;;;5013890;28;20026;-59
2022/04/18 03:05:21;;;;;;;4.32;2.90;;;25.30;99.90;;;;;;5014002;28;20052;-58
2022/04/18 03:07:47;;;;;;;6.32;3.03;;;25.30;99.90;;;;;;5029123;28;20041;-58
2022/04/18 03:10:13;;;;;;;5.60;3.15;;;25.30;99.90;;;;;;5013827;28;20080;-57
2022/04/18 03:12:39;;;;;;;4.70;2.83;;;25.30;99.90;;;;;;5013884;28;20124;-58
2022/04/18 03:15:05;;;;;;;9.00;2.95;;;25.30;99.90;;;;;;5012688;28;20061;-58
2022/04/18 03:17:31;;;;;;;3.92;2.95;;;25.30;99.90;;;;;;5013685;28;20076;-57
2022/04/18 03:19:57;;;;;;;5.38;2.70;;;25.30;99.90;;;;;;5013971;28;20552;-57
2022/04/18 03:22:24;;;;;;;5.05;2.53;;;25.30;99.90;;;;;;5013658;28;20022;-58
2022/04/18 03:24:49;;;;;;;6.30;2.90;;;25.30;99.90;;;;;;5022852;28;20032;-57
2022/04/18 03:27:15;;;;;;;5.75;2.88;;;25.30;99.90;;;;;;5033354;28;20053;-57
2022/04/18 03:29:41;;;;;;;3.10;2.33;;;25.30;99.90;;;;;;5033372;28;20378;-57
2022/04/18 03:32:07;;;;;;;5.53;2.47;;;25.20;99.90;;;;;;5030875;28;20068;-57
2022/04/18 03:34:33;;;;;;;4.75;2.58;;;25.30;99.90;;;;;;5013309;28;20105;-58
2022/04/18 03:39:52;;;;;;;4.28;2.55;;;25.20;99.90;;;;;;5013227;28;20141;-56
2022/04/18 03:42:19;;;;;;;5.90;2.78;;;25.20;99.90;;;;;;5029262;28;20052;-57
2022/04/18 03:44:47;;;;;;;7.07;2.10;;;25.20;99.90;;;;;;5032912;28;20029;-57
2022/04/18 03:47:16;;;;;;;3.47;2.58;;;25.20;99.90;;;;;;5032924;28;20029;-56
2022/04/18 03:49:42;;;;;;;11.50;2.72;;;25.20;99.90;;;;;;5032748;28;20073;-58
2022/04/18 03:52:09;;;;;;;4.25;2.33;;;25.20;99.90;;;;;;5033037;28;20126;-57
2022/04/18 03:54:35;;;;;;;4.70;3.03;;;25.20;99.90;;;;;;5032922;28;20022;-56
2022/04/18 03:57:02;;;;;;;3.67;2.63;;;25.20;99.90;;;;;;5032613;28;20683;-56
2022/04/18 03:59:28;;;;;;;3.10;2.55;;;25.20;99.90;;;;;;5044628;22;20033;-55
2022/04/18 04:01:54;;;;;;;3.97;2.58;;;25.20;99.90;;;;;;5012963;28;20041;-55
2022/04/18 04:04:20;;;;;;;6.15;2.72;;;25.20;99.90;;;;;;5028947;28;20053;-55
2022/04/18 04:06:47;;;;;;;3.42;2.42;;;25.20;99.90;;;;;;5032530;28;20033;-55
2022/04/18 04:09:12;;;;;;;4.90;2.67;;;25.20;99.90;;;;;;5032432;28;20473;-55
2022/04/18 04:11:38;;;;;;;4.65;2.78;;;25.20;99.90;;;;;;5032205;28;20103;-55
2022/04/18 04:14:04;;;;;;;3.72;2.72;;;25.10;99.90;;;;;;5032582;28;20025;-55
2022/04/18 04:16:30;;;;;;;5.15;2.75;;;25.20;99.90;;;;;;5032328;28;20401;-55
2022/04/18 04:18:56;;;;;;;3.60;2.65;;;25.10;99.90;;;;;;5032174;28;20053;-55
2022/04/18 04:21:22;;;;;;;4.38;2.50;;;25.20;99.90;;;;;;5032162;28;20053;-55
2022/04/18 04:23:48;;;;;;;9.90;3.15;;;25.10;99.90;;;;;;5031982;28;20115;-55
2022/04/18 04:26:13;;;;;;;7.00;2.80;;;25.10;99.90;;;;;;5032005;28;20021;-55
2022/04/18 04:28:39;;;;;;;6.20;2.85;;;25.10;99.90;;;;;;5032355;28;20029;-55
2022/04/18 04:31:05;;;;;;;2.90;2.40;;;25.10;99.90;;;;;;5032065;28;20041;-55
2022/04/18 04:33:31;;;;;;;5.65;3.00;;;25.10;99.90;;;;;;5032108;28;20030;-54
2022/04/18 04:36:00;;;;;;;6.50;2.67;;;25.10;99.90;;;;;;5032065;28;20071;-55
2022/04/18 04:38:27;;;;;;;3.60;2.65;;;25.10;99.90;;;;;;5031968;28;20026;-55
2022/04/18 04:40:53;;;;;;;3.53;2.70;;;25.10;99.90;;;;;;5031959;28;20033;-55
2022/04/18 04:43:20;;;;;;;4.90;2.47;;;25.10;99.90;;;;;;5018251;28;20026;-56
2022/04/18 04:45:46;;;;;;;4.10;2.38;;;25.10;99.90;;;;;;4993958;28;20037;-56
2022/04/18 04:48:12;;;;;;;5.55;2.80;;;25.10;99.90;;;;;;5012343;28;20037;-55
2022/04/18 04:50:39;;;;;;;4.63;2.83;;;25.10;99.90;;;;;;5012085;28;20030;-56
2022/04/18 04:53:05;;;;;;;;;;;25.10;99.90;;;;;;5011324;28;20501;-56
2022/04/18 04:55:31;;;;;;;3.50;2.50;;;25.10;99.90;;;;;;5012043;28;19905;-56
2022/04/18 04:57:57;;;;;;;5.18;3.03;;;25.10;99.90;;;;;;5010703;28;20033;-56
2022/04/18 05:00:24;;;;;;;3.35;2.65;;;25.00;99.90;;;;;;5011844;28;20425;-56
2022/04/18 05:02:50;;;;;;;5.28;2.85;;;25.00;99.90;;;;;;5011807;28;20528;-55
2022/04/18 05:05:16;;;;;;;5.38;3.40;;;25.00;99.90;;;;;;5011916;28;20038;-55
2022/04/18 05:07:41;;;;;;;4.55;3.00;;;25.00;99.90;;;;;;5012095;28;20466;-55
2022/04/18 05:10:08;;;;;;;6.18;3.38;;;25.00;99.90;;;;;;5011738;28;20072;-56
2022/04/18 05:12:33;;;;;;;4.88;3.05;;;25.00;99.90;;;;;;5012763;28;20041;-56
2022/04/18 05:15:06;;;;;;;4.15;2.42;;;25.00;99.90;;;;;;5011491;28;20034;-56
2022/04/18 05:17:32;;;;;;;6.78;3.22;;;25.00;99.90;;;;;;5026732;28;20030;-56
2022/04/18 05:19:57;;;;;;;7.22;3.30;;;25.00;99.90;;;;;;5011767;28;20069;-56
2022/04/18 05:22:24;;;;;;;7.28;3.25;;;25.00;99.90;;;;;;5011489;28;20036;-56
2022/04/18 05:24:50;;;;;;;4.53;2.90;;;25.00;99.90;;;;;;5011599;28;20050;-56
2022/04/18 05:27:16;;;;;;;5.22;3.25;;;24.90;99.90;;;;;;5011667;28;20026;-56
2022/04/18 05:29:42;;;;;;;6.65;3.28;;;24.90;99.90;;;;;;5011693;28;20462;-56
2022/04/18 05:32:09;;;;;;;5.13;3.10;;;25.00;99.90;;;;;;5011357;28;20026;-56
2022/04/18 05:34:35;;;;;;;4.28;2.90;;;25.00;99.90;;;;;;5011453;28;20022;-56
2022/04/18 05:37:01;;;;;;;6.03;3.25;;;24.90;99.90;;;;;;5011411;28;20026;-56
2022/04/18 05:39:27;;;;;;;5.28;3.13;;;24.90;99.90;;;;;;5011508;28;20030;-55
2022/04/18 05:41:52;;;;;;;6.60;3.45;;;24.90;99.90;;;;;;5011534;28;20033;-55
2022/04/18 05:44:18;;;;;;;4.07;2.60;;;24.90;99.90;;;;;;5027101;28;20029;-55
2022/04/18 05:46:44;;;;;;;4.68;3.17;;;24.90;99.90;;;;;;5030783;28;20023;-55
2022/04/18 05:49:10;;;;;;;6.03;3.22;;;24.90;99.90;;;;;;5031026;28;20021;-55
2022/04/18 05:51:38;;;;;;;7.63;3.15;;;24.90;99.90;;;;;;5030826;28;20038;-55
2022/04/18 05:54:04;;;;;;;4.38;2.58;;;24.90;99.90;;;;;;5030950;28;20025;-55
2022/04/18 05:56:30;;;;;;;4.85;3.03;;;24.80;99.90;;;;;;5029689;28;20029;-55
2022/04/18 05:58:57;;;;;;;5.30;3.20;;;24.90;99.90;;;;;;5034032;28;20031;-55
2022/04/18 06:01:23;;;;;;;4.10;3.00;;;24.90;99.90;;;;;;5034671;28;20041;-55
2022/04/18 06:03:49;;;;;;;5.72;3.00;;;24.90;99.90;;;;;;5034720;28;20615;-55
2022/04/18 06:06:15;;;;;;;4.55;2.90;;;24.80;99.90;;;;;;5034939;28;20031;-55
2022/04/18 06:08:41;;;;;;;5.25;3.83;;;24.80;99.90;;;;;;5034746;28;20022;-55
2022/04/18 06:11:07;;;;;;;6.32;3.30;;;24.80;99.90;;;;;;5034625;28;20463;-54
2022/04/18 06:13:33;;;;;;;5.75;3.50;;;24.80;99.90;;;;;;5024360;28;20131;-54
2022/04/18 06:16:00;;;;;;;4.75;3.40;;;24.80;99.90;;;;;;5014824;28;20173;-55
2022/04/18 06:18:26;;;;;;;8.55;4.10;;;24.80;99.90;;;;;;5014667;28;20033;-54
2022/04/18 06:20:52;;;;;;;7.13;3.72;;;24.80;99.90;;;;;;5014727;28;20378;-54
2022/04/18 06:23:18;;;;;;;4.32;3.17;;;24.80;99.90;;;;;;5015008;28;20037;-54
2022/04/18 06:25:44;;;;;;;6.45;3.15;;;24.80;99.90;;;;;;5018335;28;20032;-54
2022/04/18 06:28:12;;;;;;;6.40;3.40;;;24.80;99.90;;;;;;5014580;28;20084;-54
2022/04/18 06:30:38;;;;;;;5.15;3.10;;;24.80;99.90;;;;;;5013194;28;20497;-54
2022/04/18 06:33:04;;;;;;;6.18;3.80;;;24.80;99.90;;;;;;5014541;28;20087;-55
2022/04/18 06:35:30;;;;;;;6.30;3.45;;;24.80;99.90;;;;;;5014468;28;20018;-54
2022/04/18 06:37:57;;;;;;;6.30;3.35;;;24.80;99.90;;;;;;5014534;28;20437;-55
2022/04/18 06:40:22;;;;;;;8.43;3.78;;;24.80;99.90;;;;;;5014543;28;20137;-55
2022/04/18 06:42:50;;;;;;;6.55;3.90;;;24.80;99.90;;;;;;5014508;28;20034;-55
2022/04/18 06:45:16;;;;;;;6.65;3.90;;;24.80;99.90;;;;;;5014532;28;20044;-55
2022/04/18 06:47:42;;;;;;;7.20;4.40;;;24.80;99.90;;;;;;5012869;28;20026;-55
2022/04/18 06:50:11;;;;;;;7.85;4.45;;;24.80;99.90;;;;;;5013770;28;20125;-56
2022/04/18 06:52:41;;;;;;;4.78;3.50;;;24.80;99.90;;;;;;5012367;28;20061;-56
2022/04/18 06:55:09;;;;;;;6.18;4.03;;;24.80;99.90;;;;;;5013761;28;20018;-56
2022/04/18 06:57:35;;;;;;;8.35;4.45;;;24.80;99.90;;;;;;5033192;28;20473;-56
2022/04/18 07:00:03;;;;;;;9.07;4.50;;;24.90;99.90;;;;;;5033455;28;20481;-56
2022/04/18 07:02:29;;;;;;;6.10;4.60;;;24.90;99.90;;;;;;5033604;28;20505;-55
2022/04/18 07:04:55;;;;;;;7.25;4.32;;;24.80;99.90;;;;;;5033473;28;20029;-56
2022/04/18 07:07:21;;;;;;;6.93;5.13;;;24.90;99.90;;;;;;5033685;28;20030;-55
2022/04/18 07:09:46;;;;;;;6.63;4.10;;;24.90;99.90;;;;;;5033119;28;20037;-55
2022/04/18 07:12:12;;;;;;;6.70;4.47;;;24.90;99.90;;;;;;5033336;28;20041;-56
2022/04/18 07:14:39;;;;;;;7.72;4.93;;;24.90;99.90;;;;;;5033658;28;20447;-56
2022/04/18 07:17:06;;;;;;;6.05;4.43;;;24.90;99.90;;;;;;5033380;28;20473;-56
2022/04/18 07:19:33;;;;;;;6.82;4.57;;;24.90;99.90;;;;;;5033300;28;20053;-56
2022/04/18 07:21:59;;;;;;;6.10;4.05;;;24.90;99.90;;;;;;5020234;28;20480;-56
2022/04/18 07:24:25;;;;;;;8.35;4.68;;;25.00;99.90;;;;;;5013436;28;20049;-56
2022/04/18 07:26:53;;;;;;;5.93;4.40;;;25.00;99.90;;;;;;5013699;28;20068;-56
2022/04/18 07:29:19;;;;;;;8.57;4.93;;;25.00;99.90;;;;;;5012257;28;20417;-56
2022/04/18 07:31:45;;;;;;;7.05;4.10;;;25.00;99.90;;;;;;5013220;28;20053;-56
2022/04/18 07:34:11;;;;;;;7.28;4.50;;;25.00;99.90;;;;;;5013467;28;20383;-56
2022/04/18 07:36:36;;;;;;;8.43;4.50;;;25.00;99.90;;;;;;5013212;28;20075;-56
2022/04/18 07:39:03;;;;;;;5.95;4.18;;;25.00;99.90;;;;;;5013196;28;20033;-57
2022/04/18 07:41:29;;;;;;;7.47;4.22;;;25.00;99.90;;;;;;5013137;28;20382;-57
2022/04/18 07:43:56;;;;;;;5.97;4.38;;;25.00;99.90;;;;;;5011844;28;20160;-56
2022/04/18 07:46:24;;;;;;;7.18;4.95;;;25.00;99.90;;;;;;5012194;28;20049;-56
2022/04/18 07:48:51;;;;;;;5.10;4.05;;;25.00;99.90;;;;;;5013060;28;20477;-56
2022/04/18 07:54:14;;;;;;;5.78;3.92;;;25.00;99.90;;;;;;5032910;28;20122;-56
2022/04/18 07:56:41;;;;;;;8.50;4.90;;;25.00;99.90;;;;;;5032691;28;20029;-56
2022/04/18 07:59:07;;;;;;;6.88;4.15;;;25.00;99.90;;;;;;5032592;28;20037;-56
2022/04/18 08:01:33;;;;;;;5.35;3.72;;;25.00;99.90;;;;;;5032377;28;20048;-56
2022/04/18 08:04:02;;;;;;;6.32;4.10;;;25.00;99.90;;;;;;5032682;28;20028;-56
2022/04/18 08:06:29;;;;;;;5.00;4.18;;;25.00;99.90;;;;;;5032520;28;20392;-56
2022/04/18 08:08:55;;;;;;;5.88;3.90;;;25.00;99.90;;;;;;5032401;28;20025;-57
2022/04/18 08:11:20;;;;;;;5.82;4.20;;;25.00;99.90;;;;;;5032429;28;20033;-57
2022/04/18 08:13:48;;;;;;;6.05;4.25;;;25.00;99.90;;;;;;5032246;28;20030;-57
2022/04/18 08:16:14;;;;;;;;;;;25.00;99.90;;;;;;5032814;28;20041;-57
2022/04/18 08:18:44;;;;;;;5.32;3.78;;;25.00;99.90;;;;;;5032359;28;20020;-57
2022/04/18 08:21:17;;;;;;;7.03;4.07;;;25.10;99.90;;;;;;5022783;28;20076;-57
2022/04/18 08:23:45;;;;;;;6.03;4.32;;;25.00;99.90;;;;;;5012553;28;20056;-56
2022/04/18 08:26:10;;;;;;;7.60;4.13;;;25.10;99.90;;;;;;5012334;28;20515;-57
2022/04/18 08:28:37;;;;;;;6.13;3.83;;;25.10;99.90;;;;;;5012278;28;20029;-57
2022/04/18 08:31:03;;;;;;;6.57;4.35;;;25.10;99.90;;;;;;5012142;28;20112;-57
2022/04/18 08:33:29;;;;;;;6.95;4.03;;;25.10;99.90;;;;;;5010697;28;20121;-57
2022/04/18 08:35:57;;;;;;;7.28;3.85;;;25.10;99.90;;;;;;5006160;28;20033;-57
2022/04/18 08:38:24;;;;;;;6.57;4.30;;;25.10;99.90;;;;;;5001206;28;20061;-57
2022/04/18 08:40:50;;;;;;;6.25;4.22;;;25.10;99.90;;;;;;4992407;28;20038;-56
2022/04/18 08:43:17;;;;;;;7.97;4.13;;;25.10;99.90;;;;;;5003470;28;20171;-57
2022/04/18 08:45:43;;;;;;;7.75;4.28;;;25.10;99.90;;;;;;5006084;28;20026;-57
2022/04/18 08:53:38;;;;;;;6.97;4.47;;;25.10;99.90;;;;;;5011422;28;20037;-56
2022/04/18 08:56:05;;;;;;;5.78;3.97;;;25.20;99.90;;;;;;5022613;28;20026;-56
2022/04/18 08:58:31;;;;;;;6.30;4.03;;;25.10;99.90;;;;;;5017055;28;20037;-56
2022/04/18 09:00:59;;;;;;;10.00;3.70;;;25.20;99.90;;;;;;5011912;28;20062;-59
2022/04/18 09:03:24;;;;;;;;;;;25.10;99.90;;;;;;5012407;28;20474;-59
2022/04/18 09:06:12;;;;;;;9.98;2.80;;;25.10;99.90;;;;;;5011133;28;19906;-63
2022/04/18 09:08:46;;;;;;;10.43;3.13;;;25.00;99.90;;;;;;5024998;28;20020;-61
2022/04/18 09:11:32;;;;;;;12.23;3.15;;;24.90;99.90;;;;;;5014911;28;20109;-60
2022/04/18 09:14:14;;;;;;;13.75;4.05;;;24.90;99.90;;;;;;5028139;28;20482;-61
2022/04/18 09:16:41;;;;;;;10.25;4.53;;;24.80;99.90;;;;;;5021240;28;20029;-59
2022/04/18 09:19:16;;;;;;;11.40;4.72;;;24.80;99.90;;;;;;5011421;28;20033;-59
2022/04/18 09:22:02;;;;;;;17.60;4.53;;;24.70;99.90;;;;;;5022225;28;20033;-56
2022/04/18 09:24:33;;;;;;;15.18;4.38;;;24.70;99.90;;;;;;5031340;28;20021;-59
2022/04/18 09:27:27;;;;;;;12.18;4.18;;;24.60;99.90;;;;;;5031172;28;20078;-56
2022/04/18 09:30:10;;;;;;;17.00;4.22;;;24.50;99.90;;;;;;5016856;28;20034;-56
2022/04/18 09:32:38;;;;;;;12.63;4.05;;;24.40;99.90;;;;;;5038464;28;20029;-55
2022/04/18 09:35:05;;;;;;;17.50;4.32;;;24.40;99.90;;;;;;5018380;28;20053;-55
2022/04/18 09:37:32;;;;;;;16.50;4.00;;;24.50;99.90;;;;;;5008052;28;20026;-56
2022/04/18 09:39:59;;;;;;;9.85;3.95;;;24.50;99.90;;;;;;5006748;28;20151;-57
2022/04/18 09:42:30;;;;;;;12.00;4.60;;;24.60;99.90;;;;;;5009521;28;20382;-57
2022/04/18 09:44:56;;;;;;;12.20;3.70;;;24.70;99.90;;;;;;5008302;28;20026;-56
2022/04/18 09:47:23;;;;;;;7.93;3.45;;;24.70;99.90;;;;;;5014544;28;20037;-54
2022/04/18 09:49:50;;;;;;;9.75;3.65;;;24.80;99.90;;;;;;5029442;28;20036;-54
2022/04/18 09:52:20;;;;;;;11.80;3.75;;;24.80;99.90;;;;;;5027084;28;20045;-54
2022/04/18 09:54:57;;;;;;;13.25;4.07;;;24.90;99.90;;;;;;5030740;28;20049;-54
2022/04/18 09:57:28;;;;;;;10.90;3.83;;;24.90;99.90;;;;;;5016798;28;20034;-57
2022/04/18 09:59:57;;;;;;;17.90;5.30;;;25.00;99.90;;;;;;5010403;28;20036;-57
2022/04/18 10:02:25;;;;;;;16.27;5.70;;;25.00;99.90;;;;;;5010610;28;20030;-57
2022/04/18 10:04:51;;;;;;;;;;;25.10;99.90;;;;;;5011396;28;20026;-55
2022/04/18 10:07:17;;;;;;;11.82;4.20;;;25.10;99.90;;;;;;5011099;28;20384;-55
2022/04/18 10:09:43;;;;;;;9.75;4.43;;;25.10;99.90;;;;;;5011103;28;20065;-56
2022/04/18 10:12:11;;;;;;;11.57;3.92;;;25.20;99.90;;;;;;5011023;28;20032;-55
2022/04/18 10:14:37;;;;;;;;;;;25.20;99.90;;;;;;5011465;28;20034;-54
2022/04/18 10:17:06;;;;;;;7.40;3.85;;;25.20;99.90;;;;;;5018707;28;19945;-54
2022/04/18 10:19:47;;;;;;;12.57;3.88;;;25.30;99.90;;;;;;5030615;28;20021;-54
2022/04/18 10:22:31;;;;;;;12.07;4.40;;;25.30;99.90;;;;;;5030637;28;20188;-55
2022/04/18 10:25:16;;;;;;;12.18;4.55;;;25.30;99.90;;;;;;5030610;28;20021;-54
2022/04/18 10:27:59;;;;;;;8.85;4.70;;;25.30;99.90;;;;;;5028601;28;20036;-55
2022/04/18 10:30:26;;;;;;;10.82;4.28;;;25.40;99.90;;;;;;4989871;28;20030;-55
2022/04/18 10:32:53;;;;;;;11.63;4.82;;;25.40;99.90;;;;;;4990926;28;20038;-55
2022/04/18 10:35:23;;;;;;;11.02;5.93;;;25.40;99.90;;;;;;4991075;28;20050;-55
2022/04/18 10:37:54;;;;;;;11.13;5.28;;;25.50;99.90;;;;;;4991019;28;20429;-55
2022/04/18 10:40:20;;;;;;;13.05;6.20;;;25.50;99.90;;;;;;4989822;28;20050;-56
2022/04/18 10:42:46;;;;;;;10.65;6.07;;;25.50;99.90;;;;;;4994682;28;20029;-55
2022/04/18 10:45:20;;;;;;;9.98;6.28;;;25.50;99.90;;;;;;5013920;28;20117;-55
2022/04/18 10:48:11;;;;;;;11.05;6.13;;;25.60;99.90;;;;;;5014012;28;20033;-56
2022/04/18 10:50:51;;;;;;;14.35;7.00;;;25.60;99.90;;;;;;5014228;28;20030;-55
2022/04/18 10:53:22;;;;;;;13.68;6.65;;;25.60;99.90;;;;;;5014109;28;20050;-56
2022/04/18 10:55:51;;;;;;;11.13;6.93;;;25.70;99.90;;;;;;5029129;28;20052;-55
2022/04/18 10:58:29;;;;;;;12.52;6.90;;;25.70;99.90;;;;;;5015138;28;20052;-55
2022/04/18 11:00:55;;;;;;;;;;;25.70;99.90;;;;;;5033927;28;20041;-55
2022/04/18 11:03:56;;;;;;;28.85;9.77;;;25.70;99.90;;;;;;5033695;28;20368;-55
2022/04/18 11:06:32;;;;;;;40.63;9.88;;;25.70;99.90;;;;;;5033551;28;20417;-57
2022/04/18 11:09:06;;;;;;;22.05;8.45;;;25.70;99.90;;;;;;5032445;28;20021;-58
2022/04/18 11:11:54;;;;;;;16.23;8.10;;;25.80;99.90;;;;;;5018081;28;20038;-54
2022/04/18 11:14:26;;;;;;;22.50;9.35;;;25.80;99.90;;;;;;5013598;28;20025;-55
2022/04/18 11:17:00;;;;;;;21.10;8.27;;;25.80;99.90;;;;;;5013624;28;20029;-54
2022/04/18 11:19:31;;;;;;;20.10;8.70;;;25.80;99.90;;;;;;5013388;28;20163;-54
2022/04/18 11:24:48;;;;;;;23.42;9.05;;;25.90;99.90;;;;;;5010117;28;20034;-55
2022/04/18 11:27:16;;;;;;;18.48;9.27;;;25.90;99.90;;;;;;5016135;28;20029;-54
2022/04/18 11:29:45;;;;;;;22.65;8.27;;;25.90;99.90;;;;;;5023521;28;20021;-54
2022/04/18 11:32:16;;;;;;;22.88;8.77;;;25.90;99.90;;;;;;5021614;28;20103;-54
2022/04/18 11:34:45;;;;;;;23.95;8.38;;;25.90;99.90;;;;;;5020441;28;20893;-55
2022/04/18 11:37:13;;;;;;;15.25;7.53;;;25.90;99.90;;;;;;5017940;28;20108;-56
2022/04/18 11:39:44;;;;;;;26.08;8.13;;;26.00;99.90;;;;;;5010597;28;20022;-54
2022/04/18 11:42:14;;;;;;;21.95;7.95;;;26.00;99.90;;;;;;5010436;28;20033;-53
2022/04/18 11:44:41;;;;;;;28.30;8.30;;;26.00;99.90;;;;;;5010361;28;20112;-52
2022/04/18 11:47:09;;;;;;;22.23;9.15;;;26.00;99.90;;;;;;5010410;28;20552;-53
2022/04/18 11:49:38;;;;;;;13.70;7.40;;;26.10;99.90;;;;;;5010357;28;20106;-53
2022/04/18 11:52:05;;;;;;;15.68;7.05;;;26.00;99.90;;;;;;5007699;28;20038;-54
2022/04/18 11:54:32;;;;;;;18.05;7.55;;;26.10;99.90;;;;;;5010192;28;20626;-53
2022/04/18 11:56:58;;;;;;;16.95;7.63;;;26.10;99.90;;;;;;5010512;28;20032;-53
2022/04/18 11:59:29;;;;;;;21.88;7.97;;;26.10;99.90;;;;;;5013847;28;20146;-52
2022/04/18 12:07:29;;;;;;;22.58;7.55;;;26.20;99.90;;;;;;5026578;28;20525;-53
2022/04/18 12:09:54;;;;;;;13.75;7.00;;;26.10;99.90;;;;;;5031812;28;20075;-55
2022/04/18 12:12:30;;;;;;;13.07;7.05;;;26.20;99.90;;;;;;5031765;28;20045;-55
2022/04/18 12:15:00;;;;;;;14.00;6.95;;;26.20;99.90;;;;;;5031766;28;20025;-54
2022/04/18 12:17:26;;;;;;;15.07;9.50;;;26.20;99.90;;;;;;5031706;28;20021;-53
2022/04/18 12:19:52;;;;;;;26.13;17.42;;;26.20;99.90;;;;;;5026971;28;20473;-53
2022/04/18 12:22:22;;;;;;;39.53;25.17;;;26.30;99.90;;;;;;5031726;28;20033;-54
2022/04/18 12:24:49;;;;;;;42.05;27.50;;;26.20;99.90;;;;;;5031610;28;20029;-52
2022/04/18 12:27:16;;;;;;;55.20;29.80;;;26.30;99.90;;;;;;5031602;28;20034;-52
2022/04/18 12:29:43;;;;;;;;;;;26.30;99.90;;;;;;5019279;28;20072;-52
2022/04/18 12:32:26;;;;;;;37.35;27.52;;;26.30;99.90;;;;;;5011732;28;19913;-52
2022/04/18 12:34:53;;;;;;;41.15;26.77;;;26.30;99.90;;;;;;5011565;28;20474;-52
2022/04/18 12:37:19;;;;;;;36.63;25.15;;;26.30;99.90;;;;;;5017835;28;20120;-53
2022/04/18 12:39:44;;;;;;;37.13;24.75;;;26.30;99.90;;;;;;5031350;28;20025;-52
2022/04/18 12:42:10;;;;;;;39.60;24.77;;;26.30;99.90;;;;;;5031429;28;20032;-53
2022/04/18 12:44:39;;;;;;;33.03;23.13;;;26.30;99.90;;;;;;5031402;28;20032;-52
2022/04/18 12:47:21;;;;;;;38.83;24.20;;;26.30;99.90;;;;;;5026756;28;20482;-53
2022/04/18 12:50:05;;;;;;;33.60;21.90;;;26.30;99.90;;;;;;5011361;28;20112;-53
2022/04/18 12:52:30;;;;;;;34.13;22.70;;;26.40;99.90;;;;;;5010097;28;20044;-53
2022/04/18 12:55:07;;;;;;;34.55;21.77;;;26.40;99.90;;;;;;5011251;28;20034;-53
2022/04/18 12:57:33;;;;;;;37.90;22.20;;;26.40;99.90;;;;;;5019031;28;20029;-54
2022/04/18 13:00:14;;;;;;;36.17;21.38;;;26.40;99.90;;;;;;5025682;28;20085;-54
2022/04/18 13:02:40;;;;;;;29.92;20.52;;;26.40;99.90;;;;;;5023495;28;20394;-53
2022/04/18 13:05:07;;;;;;;26.98;19.88;;;26.40;99.90;;;;;;5016294;28;20030;-53
2022/04/18 13:07:40;;;;;;;37.90;20.42;;;26.40;99.90;;;;;;5019958;28;20334;-53
2022/04/18 13:10:07;;;;;;;30.23;19.05;;;26.40;99.90;;;;;;5029216;28;20477;-54
2022/04/18 13:12:33;;;;;;;32.08;18.95;;;26.50;99.90;;;;;;5021432;28;20393;-52
2022/04/18 13:15:05;;;;;;;29.08;17.75;;;26.50;99.90;;;;;;5029048;28;20469;-52